Time;durP1;ratioP1;P1;durP2;ratioP2;P2;SDS_P1;SDS_P2;PMS_P1;PMS_P2;Temp;Humidity;BMP_temperature;BMP_pressure;BME280_temperature;BME280_humidity;BME280_pressure;Samples;Min_cycle;Max_cycle;Signal;HPM_P1;HPM_P2
2023/05/22 00:00:45;;;;;;;16.35;13.10;;;;;;;;;;5075933;28;20673;-76
2023/05/22 00:03:15;;;;;;;15.77;13.98;;;;;;;;;;5076142;28;20044;-75
2023/05/22 00:05:44;;;;;;;14.52;12.77;;;;;;;;;;5075855;28;20056;-75
2023/05/22 00:08:14;;;;;;;18.47;14.13;;;;;;;;;;5076284;28;20087;-75
2023/05/22 00:10:42;;;;;;;16.75;13.15;;;;;;;;;;5075451;28;20131;-75
2023/05/22 00:13:09;;;;;;;15.13;12.73;;;;;;;;;;5075455;28;20067;-75
2023/05/22 00:15:39;;;;;;;16.10;14.05;;;;;;;;;;5075721;28;20084;-75
2023/05/22 00:18:13;;;;;;;16.85;13.10;;;;;;;;;;5076403;28;20062;-75
2023/05/22 00:20:45;;;;;;;15.02;12.95;;;;;;;;;;5076349;28;20047;-75
2023/05/22 00:23:16;;;;;;;15.57;13.32;;;;;;;;;;5075479;28;20044;-75
2023/05/22 00:25:43;;;;;;;14.85;12.98;;;;;;;;;;5075742;28;20058;-74
2023/05/22 00:28:12;;;;;;;17.23;12.68;;;;;;;;;;5075856;28;20506;-75
2023/05/22 00:30:41;;;;;;;15.07;13.18;;;;;;;;;;5075145;28;20121;-74
2023/05/22 00:33:11;;;;;;;15.02;12.95;;;;;;;;;;5075327;28;20071;-75
2023/05/22 00:35:38;;;;;;;14.90;12.80;;;;;;;;;;5059113;28;20059;-74
2023/05/22 00:38:09;;;;;;;14.18;12.55;;;;;;;;;;5075816;28;20504;-75
2023/05/22 00:40:45;;;;;;;14.65;13.13;;;;;;;;;;5076490;28;20048;-74
2023/05/22 00:43:16;;;;;;;15.38;12.75;;;;;;;;;;5075214;28;20412;-74
2023/05/22 00:45:46;;;;;;;17.40;13.30;;;;;;;;;;5075485;28;20139;-74
2023/05/22 00:48:15;;;;;;;17.73;14.00;;;;;;;;;;5075503;28;20052;-74
2023/05/22 00:50:43;;;;;;;19.80;15.32;;;;;;;;;;5074624;28;20040;-77
2023/05/22 00:53:16;;;;;;;15.25;13.63;;;;;;;;;;5054932;28;20048;-76
2023/05/22 00:55:43;;;;;;;;;;;;;;;;;;5061639;28;20060;-77
2023/05/22 00:58:21;;;;;;;19.25;14.77;;;;;;;;;;5058154;28;19920;-76
2023/05/22 01:00:49;;;;;;;16.38;13.88;;;;;;;;;;5056150;28;20056;-76
2023/05/22 01:03:24;;;;;;;17.00;14.70;;;;;;;;;;5061432;28;20082;-76
2023/05/22 01:05:53;;;;;;;18.50;14.63;;;;;;;;;;5059908;28;20056;-76
2023/05/22 01:08:23;;;;;;;17.55;14.35;;;;;;;;;;5058757;28;20052;-75
2023/05/22 01:11:07;;;;;;;18.15;15.43;;;;;;;;;;5074854;28;20055;-75
2023/05/22 01:13:46;;;;;;;19.20;14.70;;;;;;;;;;5038435;28;20071;-75
2023/05/22 01:16:36;;;;;;;20.00;14.43;;;;;;;;;;5054786;28;20067;-73
2023/05/22 01:19:46;;;;;;;17.25;15.10;;;;;;;;;;5055428;28;20056;-74
2023/05/22 01:22:30;;;;;;;19.83;14.40;;;;;;;;;;5055291;28;20052;-74
2023/05/22 01:25:28;;;;;;;18.10;14.82;;;;;;;;;;5054355;28;20049;-73
2023/05/22 01:28:17;;;;;;;17.45;15.05;;;;;;;;;;5070772;28;20134;-73
2023/05/22 01:31:07;;;;;;;19.67;15.95;;;;;;;;;;5070623;28;20041;-73
2023/05/22 01:33:43;;;;;;;19.00;15.15;;;;;;;;;;5054788;28;20052;-73
2023/05/22 01:36:11;;;;;;;19.73;15.85;;;;;;;;;;5070630;28;20088;-73
2023/05/22 01:38:40;;;;;;;16.52;14.70;;;;;;;;;;5054201;28;20053;-74
2023/05/22 01:41:08;;;;;;;17.85;15.30;;;;;;;;;;5037758;28;20045;-74
2023/05/22 01:43:36;;;;;;;18.58;15.10;;;;;;;;;;5073970;28;20090;-74
2023/05/22 01:46:07;;;;;;;18.05;15.45;;;;;;;;;;5073740;28;20051;-74
2023/05/22 01:48:37;;;;;;;16.50;13.60;;;;;;;;;;5058879;28;20143;-74
2023/05/22 01:51:17;;;;;;;17.85;15.10;;;;;;;;;;5073631;28;20044;-73
2023/05/22 01:54:06;;;;;;;17.35;15.05;;;;;;;;;;5073662;28;20084;-73
2023/05/22 01:56:58;;;;;;;18.48;16.20;;;;;;;;;;5058476;28;20074;-74
2023/05/22 01:59:39;;;;;;;18.58;14.77;;;;;;;;;;5074050;28;20048;-74
2023/05/22 02:02:07;;;;;;;20.20;15.55;;;;;;;;;;5057074;28;20075;-73
2023/05/22 02:04:38;;;;;;;18.90;15.68;;;;;;;;;;5073774;28;20097;-74
2023/05/22 02:07:06;;;;;;;19.45;16.50;;;;;;;;;;5057118;28;20098;-74
2023/05/22 02:09:34;;;;;;;18.30;15.65;;;;;;;;;;5073732;28;20064;-74
2023/05/22 02:12:07;;;;;;;19.90;15.85;;;;;;;;;;5057277;28;20052;-73
2023/05/22 02:14:35;;;;;;;21.00;16.20;;;;;;;;;;5057300;28;20123;-74
2023/05/22 02:17:07;;;;;;;19.42;15.07;;;;;;;;;;5073760;28;20062;-73
2023/05/22 02:19:35;;;;;;;18.45;15.52;;;;;;;;;;5073637;28;20242;-73
2023/05/22 02:22:08;;;;;;;19.27;15.77;;;;;;;;;;5073947;28;20048;-73
2023/05/22 02:24:36;;;;;;;19.27;16.40;;;;;;;;;;5072371;28;20054;-73
2023/05/22 02:27:03;;;;;;;23.17;16.58;;;;;;;;;;5056895;28;20048;-73
2023/05/22 02:29:33;;;;;;;22.90;16.98;;;;;;;;;;5073903;28;20105;-74
2023/05/22 02:32:00;;;;;;;20.65;16.08;;;;;;;;;;5056898;28;20056;-79
2023/05/22 02:34:39;;;;;;;20.45;15.80;;;;;;;;;;5073456;28;20131;-74
2023/05/22 02:37:09;;;;;;;24.40;16.63;;;;;;;;;;5057953;28;20101;-74
2023/05/22 02:39:37;;;;;;;20.55;16.15;;;;;;;;;;5091137;28;20044;-74
2023/05/22 02:42:11;;;;;;;24.63;16.90;;;;;;;;;;5073417;28;20068;-74
2023/05/22 02:44:41;;;;;;;21.58;17.08;;;;;;;;;;5074054;28;20067;-74
2023/05/22 02:47:09;;;;;;;24.08;16.98;;;;;;;;;;5073401;28;20115;-74
2023/05/22 02:49:39;;;;;;;22.65;18.27;;;;;;;;;;5073263;28;20056;-74
2023/05/22 02:52:07;;;;;;;21.75;16.35;;;;;;;;;;5072968;28;20512;-74
2023/05/22 02:54:34;;;;;;;21.33;17.77;;;;;;;;;;5073177;28;20056;-75
2023/05/22 02:57:05;;;;;;;19.83;16.85;;;;;;;;;;5073204;28;20067;-75
2023/05/22 02:59:35;;;;;;;20.33;16.27;;;;;;;;;;5073743;28;20117;-75
2023/05/22 03:02:05;;;;;;;21.77;16.00;;;;;;;;;;5091167;28;20370;-75
2023/05/22 03:04:37;;;;;;;20.27;16.80;;;;;;;;;;5073893;28;20059;-74
2023/05/22 03:07:06;;;;;;;20.00;16.17;;;;;;;;;;5073637;28;20048;-76
2023/05/22 03:09:41;;;;;;;20.15;16.65;;;;;;;;;;5078561;28;20143;-75
2023/05/22 03:12:14;;;;;;;20.35;16.45;;;;;;;;;;5070384;28;20040;-76
2023/05/22 03:14:41;;;;;;;19.88;16.13;;;;;;;;;;5082807;28;20036;-75
2023/05/22 03:17:09;;;;;;;20.63;16.23;;;;;;;;;;5115834;28;20062;-75
2023/05/22 03:19:36;;;;;;;20.48;15.90;;;;;;;;;;5099965;28;20054;-75
2023/05/22 03:22:06;;;;;;;21.20;15.95;;;;;;;;;;5084991;28;20048;-75
2023/05/22 03:24:34;;;;;;;19.23;15.65;;;;;;;;;;5073113;28;20427;-75
2023/05/22 03:27:04;;;;;;;20.42;15.45;;;;;;;;;;5057558;28;20134;-77
2023/05/22 03:29:32;;;;;;;18.50;15.52;;;;;;;;;;5056527;28;20513;-77
2023/05/22 03:32:02;;;;;;;19.20;16.52;;;;;;;;;;5072798;28;20545;-78
2023/05/22 03:34:31;;;;;;;18.77;16.77;;;;;;;;;;5073243;28;20052;-76
2023/05/22 03:37:07;;;;;;;19.63;15.63;;;;;;;;;;5059863;28;20091;-76
2023/05/22 03:39:38;;;;;;;20.70;15.75;;;;;;;;;;5060581;28;20047;-76
2023/05/22 03:42:06;;;;;;;19.88;16.35;;;;;;;;;;5076384;28;20055;-76
2023/05/22 03:44:33;;;;;;;19.85;15.70;;;;;;;;;;5078989;28;20074;-76
2023/05/22 03:47:03;;;;;;;17.42;14.82;;;;;;;;;;5076957;28;20067;-76
2023/05/22 03:49:42;;;;;;;18.83;15.68;;;;;;;;;;5076421;28;20084;-75
2023/05/22 03:52:12;;;;;;;18.42;16.10;;;;;;;;;;5076002;28;20507;-75
2023/05/22 03:54:40;;;;;;;19.20;15.63;;;;;;;;;;5076421;28;20411;-75
2023/05/22 03:57:13;;;;;;;20.23;16.30;;;;;;;;;;5059428;28;20056;-75
2023/05/22 03:59:41;;;;;;;19.23;15.25;;;;;;;;;;5060354;28;20385;-75
2023/05/22 04:02:16;;;;;;;18.52;15.85;;;;;;;;;;5059822;28;20469;-74
2023/05/22 04:04:52;;;;;;;21.15;16.55;;;;;;;;;;5061240;28;20184;-75
2023/05/22 04:07:25;;;;;;;18.48;15.73;;;;;;;;;;5060385;28;20097;-75
2023/05/22 04:10:04;;;;;;;17.90;15.65;;;;;;;;;;5063242;28;20503;-75
2023/05/22 04:12:35;;;;;;;18.00;14.98;;;;;;;;;;5059204;28;20044;-75
2023/05/22 04:15:06;;;;;;;17.27;15.20;;;;;;;;;;5060075;28;20056;-75
2023/05/22 04:17:39;;;;;;;16.70;14.30;;;;;;;;;;5075740;28;20052;-75
2023/05/22 04:20:10;;;;;;;16.73;14.60;;;;;;;;;;5073604;28;20060;-74
2023/05/22 04:22:38;;;;;;;20.05;16.48;;;;;;;;;;5074460;28;20048;-75
2023/05/22 04:25:08;;;;;;;21.08;15.93;;;;;;;;;;5076770;28;20101;-74
2023/05/22 04:27:37;;;;;;;19.63;16.25;;;;;;;;;;5061361;28;20063;-75
2023/05/22 04:30:15;;;;;;;24.58;17.00;;;;;;;;;;5089477;28;20515;-75
2023/05/22 04:32:43;;;;;;;19.58;16.17;;;;;;;;;;5070951;28;20419;-75
2023/05/22 04:35:11;;;;;;;20.13;15.73;;;;;;;;;;5096869;28;20183;-75
2023/05/22 04:37:44;;;;;;;19.85;16.48;;;;;;;;;;5108221;28;20055;-74
2023/05/22 04:40:18;;;;;;;;;;;;;;;;;;5080345;28;20048;-77
2023/05/22 04:42:45;;;;;;;17.58;15.13;;;;;;;;;;5077146;28;19920;-76
2023/05/22 04:45:13;;;;;;;16.98;14.65;;;;;;;;;;5098396;28;20111;-78
2023/05/22 04:47:41;;;;;;;18.15;15.43;;;;;;;;;;5081910;28;20596;-78
2023/05/22 04:50:08;;;;;;;17.05;14.73;;;;;;;;;;5083690;22;20104;-82
2023/05/22 04:52:36;;;;;;;17.52;14.18;;;;;;;;;;5024823;28;20064;-82
2023/05/22 04:55:05;;;;;;;17.40;14.43;;;;;;;;;;5032437;28;20052;-81
2023/05/22 04:57:32;;;;;;;15.45;13.57;;;;;;;;;;5006849;28;20057;-82
2023/05/22 05:00:00;;;;;;;16.60;14.23;;;;;;;;;;5009472;28;20056;-81
2023/05/22 05:02:28;;;;;;;19.48;15.25;;;;;;;;;;4986297;28;20065;-80
2023/05/22 05:04:55;;;;;;;17.25;15.05;;;;;;;;;;5050577;28;20076;-80
2023/05/22 05:07:22;;;;;;;15.63;13.70;;;;;;;;;;5024015;28;20048;-80
2023/05/22 05:09:50;;;;;;;19.67;14.38;;;;;;;;;;5037279;28;20060;-83
2023/05/22 05:12:17;;;;;;;17.08;15.05;;;;;;;;;;5008779;28;20045;-81
2023/05/22 05:14:44;;;;;;;17.05;14.95;;;;;;;;;;5007658;28;20057;-81
2023/05/22 05:17:11;;;;;;;22.10;14.93;;;;;;;;;;5006693;28;20472;-83
2023/05/22 05:19:37;;;;;;;17.85;14.82;;;;;;;;;;5005679;28;20135;-80
2023/05/22 05:22:06;;;;;;;17.30;15.07;;;;;;;;;;5002743;28;20053;-80
2023/05/22 05:24:33;;;;;;;18.63;15.68;;;;;;;;;;5001014;28;20484;-82
2023/05/22 05:27:00;;;;;;;19.73;14.80;;;;;;;;;;4985535;28;20092;-82
2023/05/22 05:29:26;;;;;;;17.25;14.50;;;;;;;;;;4984151;28;20502;-80
2023/05/22 05:31:53;;;;;;;17.58;15.68;;;;;;;;;;5023257;28;20128;-80
2023/05/22 05:34:20;;;;;;;16.80;14.98;;;;;;;;;;5042059;28;20096;-82
2023/05/22 05:36:47;;;;;;;17.08;14.40;;;;;;;;;;5033466;28;20072;-80
2023/05/22 05:39:14;;;;;;;16.33;14.63;;;;;;;;;;5013474;28;20079;-78
2023/05/22 05:41:41;;;;;;;17.95;14.18;;;;;;;;;;5027262;28;20131;-77
2023/05/22 05:44:07;;;;;;;20.52;16.50;;;;;;;;;;5011750;28;20132;-79
2023/05/22 05:46:34;;;;;;;17.42;15.57;;;;;;;;;;5020221;28;20053;-77
2023/05/22 05:49:08;;;;;;;19.55;14.75;;;;;;;;;;5021466;28;20055;-77
2023/05/22 05:51:36;;;;;;;17.67;15.80;;;;;;;;;;5021962;28;20049;-79
2023/05/22 05:54:03;;;;;;;16.40;14.73;;;;;;;;;;5014423;28;20085;-79
2023/05/22 05:56:30;;;;;;;17.63;14.95;;;;;;;;;;4982570;28;20115;-79
2023/05/22 05:58:57;;;;;;;16.95;14.70;;;;;;;;;;4982448;28;20105;-80
2023/05/22 06:01:25;;;;;;;16.02;14.27;;;;;;;;;;4999278;28;20046;-80
2023/05/22 06:03:52;;;;;;;18.02;14.23;;;;;;;;;;5001949;28;20053;-78
2023/05/22 06:06:19;;;;;;;16.73;13.55;;;;;;;;;;5018366;28;20099;-79
2023/05/22 06:08:46;;;;;;;14.05;11.88;;;;;;;;;;5018196;28;20057;-79
2023/05/22 06:11:13;;;;;;;15.73;13.05;;;;;;;;;;5017713;28;20413;-79
2023/05/22 06:13:40;;;;;;;15.35;12.45;;;;;;;;;;5015359;28;20076;-79
2023/05/22 06:16:07;;;;;;;14.57;11.82;;;;;;;;;;4998300;28;20460;-78
2023/05/22 06:18:34;;;;;;;16.38;12.52;;;;;;;;;;4982563;28;20065;-79
2023/05/22 06:21:00;;;;;;;13.50;11.43;;;;;;;;;;4982655;28;20053;-79
2023/05/22 06:23:27;;;;;;;17.42;11.98;;;;;;;;;;4982824;28;20065;-81
2023/05/22 06:25:54;;;;;;;16.05;11.40;;;;;;;;;;5019050;28;20530;-82
2023/05/22 06:28:21;;;;;;;11.80;10.60;;;;;;;;;;5028733;28;20045;-82
2023/05/22 06:30:48;;;;;;;13.73;12.40;;;;;;;;;;5015997;28;20235;-85
2023/05/22 06:33:15;;;;;;;12.48;11.27;;;;;;;;;;5009732;28;20072;-78
2023/05/22 06:35:42;;;;;;;14.98;12.02;;;;;;;;;;5040763;28;20056;-80
2023/05/22 06:38:09;;;;;;;14.52;12.18;;;;;;;;;;5025780;28;20416;-76
2023/05/22 06:40:35;;;;;;;13.23;11.55;;;;;;;;;;5025248;28;20615;-78
2023/05/22 06:43:03;;;;;;;16.92;12.48;;;;;;;;;;5028040;28;20048;-77
2023/05/22 06:45:30;;;;;;;12.27;11.07;;;;;;;;;;5029197;28;20503;-74
2023/05/22 06:47:57;;;;;;;12.32;11.07;;;;;;;;;;5043492;28;20067;-74
2023/05/22 06:50:23;;;;;;;15.85;11.95;;;;;;;;;;5026368;28;20044;-76
2023/05/22 06:52:50;;;;;;;15.68;12.45;;;;;;;;;;4995517;28;20084;-73
2023/05/22 06:55:17;;;;;;;15.90;12.05;;;;;;;;;;5011069;28;20526;-73
2023/05/22 06:57:44;;;;;;;16.30;11.98;;;;;;;;;;5029386;28;21301;-74
2023/05/22 07:00:11;;;;;;;12.77;11.10;;;;;;;;;;5008933;28;20433;-84
2023/05/22 07:02:38;;;;;;;13.15;11.57;;;;;;;;;;5030552;28;20053;-83
2023/05/22 07:05:06;;;;;;;14.57;11.80;;;;;;;;;;5039756;28;20051;-84
2023/05/22 07:07:33;;;;;;;15.80;13.60;;;;;;;;;;5014362;28;20162;-80
2023/05/22 07:10:00;;;;;;;15.65;12.75;;;;;;;;;;5018542;28;20056;-76
2023/05/22 07:12:27;;;;;;;13.95;12.48;;;;;;;;;;5019093;28;20044;-77
2023/05/22 07:14:54;;;;;;;15.15;13.25;;;;;;;;;;5008696;28;20045;-76
2023/05/22 07:17:20;;;;;;;15.70;12.75;;;;;;;;;;4996063;28;20084;-75
2023/05/22 07:19:47;;;;;;;15.75;13.18;;;;;;;;;;5016899;28;20045;-75
2023/05/22 07:22:15;;;;;;;14.70;12.23;;;;;;;;;;5012763;28;20053;-76
2023/05/22 07:24:42;;;;;;;16.98;13.50;;;;;;;;;;5005424;28;20050;-76
2023/05/22 07:27:10;;;;;;;15.02;13.43;;;;;;;;;;5025554;28;20053;-76
2023/05/22 07:29:37;;;;;;;15.13;12.25;;;;;;;;;;5000039;28;20064;-76
2023/05/22 07:32:04;;;;;;;15.45;12.73;;;;;;;;;;5001577;28;20049;-77
2023/05/22 07:34:33;;;;;;;19.15;13.73;;;;;;;;;;5030101;28;20057;-76
2023/05/22 07:37:08;;;;;;;14.88;13.05;;;;;;;;;;5012042;28;20045;-79
2023/05/22 07:39:35;;;;;;;14.57;12.93;;;;;;;;;;4998886;28;20511;-76
2023/05/22 07:42:03;;;;;;;13.60;12.20;;;;;;;;;;4989413;28;20099;-76
2023/05/22 07:44:30;;;;;;;19.20;12.60;;;;;;;;;;4993008;28;20940;-75
2023/05/22 07:46:58;;;;;;;16.65;13.95;;;;;;;;;;5001142;28;20057;-77
2023/05/22 07:49:25;;;;;;;15.63;12.77;;;;;;;;;;5019954;28;20534;-75
2023/05/22 07:51:52;;;;;;;13.77;12.15;;;;;;;;;;4996391;28;20041;-81
2023/05/22 07:54:19;;;;;;;17.38;12.98;;;;;;;;;;5019421;28;20052;-76
2023/05/22 07:59:18;;;;;;;15.35;13.35;;;;;;;;;;5051931;28;20033;-73
2023/05/22 08:01:45;;;;;;;14.70;12.05;;;;;;;;;;5035462;28;20412;-73
2023/05/22 08:04:12;;;;;;;15.38;12.65;;;;;;;;;;5003186;28;20053;-74
2023/05/22 08:06:39;;;;;;;15.82;12.85;;;;;;;;;;5033591;28;20056;-73
2023/05/22 08:09:06;;;;;;;17.80;13.55;;;;;;;;;;5002782;28;20505;-73
2023/05/22 08:11:33;;;;;;;17.33;14.35;;;;;;;;;;5034402;28;20126;-74
2023/05/22 08:14:00;;;;;;;14.85;12.93;;;;;;;;;;5003276;28;20049;-74
2023/05/22 08:16:27;;;;;;;19.80;12.45;;;;;;;;;;5002602;28;20060;-73
2023/05/22 08:18:54;;;;;;;18.67;14.23;;;;;;;;;;5003521;28;20499;-74
2023/05/22 08:21:21;;;;;;;17.42;12.85;;;;;;;;;;5002898;28;20057;-74
2023/05/22 08:23:47;;;;;;;14.32;12.68;;;;;;;;;;5002286;28;20536;-74
2023/05/22 08:26:14;;;;;;;15.25;12.52;;;;;;;;;;5003650;28;20085;-74
2023/05/22 08:28:43;;;;;;;13.73;12.10;;;;;;;;;;5003799;28;20084;-74
2023/05/22 08:31:10;;;;;;;16.25;13.50;;;;;;;;;;5035539;28;20135;-74
2023/05/22 08:33:38;;;;;;;16.10;13.70;;;;;;;;;;5002951;28;20493;-74
2023/05/22 08:36:05;;;;;;;13.85;12.30;;;;;;;;;;5035416;28;20169;-73
2023/05/22 08:38:32;;;;;;;14.50;12.55;;;;;;;;;;5035334;28;20140;-73
2023/05/22 08:40:59;;;;;;;12.55;10.85;;;;;;;;;;5035100;28;20501;-74
2023/05/22 08:43:27;;;;;;;13.82;11.40;;;;;;;;;;5018777;28;20117;-74
2023/05/22 08:46:04;;;;;;;12.10;10.65;;;;;;;;;;5003165;28;20057;-74
2023/05/22 08:48:32;;;;;;;11.80;9.70;;;;;;;;;;5018330;28;20106;-74
2023/05/22 08:51:03;;;;;;;9.88;8.88;;;;;;;;;;5002440;28;20057;-73
2023/05/22 08:53:35;;;;;;;10.90;9.30;;;;;;;;;;5002798;28;20053;-74
2023/05/22 08:56:04;;;;;;;9.80;8.90;;;;;;;;;;5003196;28;20542;-73
2023/05/22 08:58:32;;;;;;;12.23;9.55;;;;;;;;;;5002142;28;20099;-74
2023/05/22 09:00:59;;;;;;;11.02;8.88;;;;;;;;;;5003116;28;20048;-74
2023/05/22 09:03:31;;;;;;;11.75;8.55;;;;;;;;;;5022144;28;20045;-74
2023/05/22 09:05:59;;;;;;;11.02;8.63;;;;;;;;;;5023240;28;20596;-74
2023/05/22 09:08:27;;;;;;;11.73;8.32;;;;;;;;;;5021992;28;20045;-74
2023/05/22 09:10:55;;;;;;;9.85;8.57;;;;;;;;;;5016188;28;20045;-74
2023/05/22 09:13:29;;;;;;;9.32;8.23;;;;;;;;;;5002455;28;20049;-73
2023/05/22 09:15:58;;;;;;;10.55;8.73;;;;;;;;;;5002225;28;20579;-73
2023/05/22 09:18:28;;;;;;;10.88;7.78;;;;;;;;;;5002307;28;20052;-73
2023/05/22 09:21:00;;;;;;;19.13;10.73;;;;;;;;;;5002283;28;20045;-73
2023/05/22 09:23:28;;;;;;;9.82;8.65;;;;;;;;;;5006282;28;20037;-74
2023/05/22 09:25:59;;;;;;;10.05;8.77;;;;;;;;;;5007922;28;20073;-73
2023/05/22 09:28:27;;;;;;;10.52;9.43;;;;;;;;;;5023825;28;20057;-73
2023/05/22 09:30:54;;;;;;;13.85;9.95;;;;;;;;;;5007760;28;20110;-74
2023/05/22 09:33:22;;;;;;;10.45;9.40;;;;;;;;;;5007750;28;20063;-74
2023/05/22 09:35:52;;;;;;;11.82;8.77;;;;;;;;;;5009172;28;20049;-74
2023/05/22 09:38:20;;;;;;;9.85;8.73;;;;;;;;;;5007190;28;20052;-74
2023/05/22 09:40:51;;;;;;;11.32;9.00;;;;;;;;;;5004303;28;20052;-74
2023/05/22 09:43:17;;;;;;;11.90;8.77;;;;;;;;;;5003787;28;20095;-74
2023/05/22 09:45:44;;;;;;;11.18;9.82;;;;;;;;;;5001996;28;20110;-74
2023/05/22 09:48:11;;;;;;;10.40;8.82;;;;;;;;;;5001262;28;20049;-74
2023/05/22 09:50:38;;;;;;;14.27;10.20;;;;;;;;;;5001601;28;20138;-74
2023/05/22 09:53:06;;;;;;;10.57;9.48;;;;;;;;;;5017990;28;20052;-74
2023/05/22 09:55:32;;;;;;;17.15;10.23;;;;;;;;;;5000601;28;20103;-74
2023/05/22 09:58:03;;;;;;;9.38;8.38;;;;;;;;;;4999414;28;20072;-74
2023/05/22 10:00:30;;;;;;;11.00;8.98;;;;;;;;;;5014982;28;20456;-75
2023/05/22 10:03:02;;;;;;;8.20;7.43;;;;;;;;;;5001253;28;20063;-75
2023/05/22 10:05:30;;;;;;;14.43;8.40;;;;;;;;;;5000042;28;20080;-74
2023/05/22 10:08:02;;;;;;;9.13;8.23;;;;;;;;;;5000304;28;20049;-75
2023/05/22 10:10:29;;;;;;;10.07;8.63;;;;;;;;;;5017221;28;20048;-75
2023/05/22 10:13:02;;;;;;;10.48;8.50;;;;;;;;;;4999776;28;20485;-76
2023/05/22 10:15:30;;;;;;;9.30;8.05;;;;;;;;;;5000604;28;20464;-76
2023/05/22 10:17:58;;;;;;;10.20;8.23;;;;;;;;;;5001368;28;20095;-76
2023/05/22 10:20:27;;;;;;;8.77;7.88;;;;;;;;;;5017136;28;20045;-76
2023/05/22 10:22:54;;;;;;;9.18;8.27;;;;;;;;;;5019497;28;20596;-80
2023/05/22 10:25:21;;;;;;;10.15;9.15;;;;;;;;;;5001136;28;20049;-75
2023/05/22 10:27:51;;;;;;;9.80;8.77;;;;;;;;;;5000909;28;20132;-75
2023/05/22 10:30:31;;;;;;;8.95;7.95;;;;;;;;;;5000771;28;20128;-74
2023/05/22 10:33:12;;;;;;;10.10;8.70;;;;;;;;;;5010544;28;20571;-75
2023/05/22 10:35:54;;;;;;;10.52;9.00;;;;;;;;;;5016096;28;20049;-76
2023/05/22 10:38:36;;;;;;;9.07;8.13;;;;;;;;;;4996327;28;20060;-75
2023/05/22 10:41:02;;;;;;;11.05;8.32;;;;;;;;;;5045191;28;20045;-75
2023/05/22 10:43:33;;;;;;;9.15;8.25;;;;;;;;;;4998997;28;20103;-75
2023/05/22 10:46:03;;;;;;;9.55;8.63;;;;;;;;;;4999692;28;20497;-75
2023/05/22 10:48:44;;;;;;;11.82;9.30;;;;;;;;;;5015138;28;20048;-75
2023/05/22 10:51:13;;;;;;;9.50;8.60;;;;;;;;;;4999535;28;20049;-75
2023/05/22 10:53:41;;;;;;;10.95;9.20;;;;;;;;;;4999553;28;20493;-75
2023/05/22 10:56:13;;;;;;;10.70;8.57;;;;;;;;;;4999157;28;20849;-75
2023/05/22 10:58:44;;;;;;;10.68;8.82;;;;;;;;;;4998766;28;20071;-74
2023/05/22 11:01:17;;;;;;;10.10;9.13;;;;;;;;;;4999188;28;20592;-75
2023/05/22 11:03:53;;;;;;;10.18;9.10;;;;;;;;;;5012282;28;20489;-75
2023/05/22 11:06:37;;;;;;;10.90;8.18;;;;;;;;;;5012311;28;20095;-75
2023/05/22 11:09:32;;;;;;;10.55;9.38;;;;;;;;;;5016110;28;20656;-74
2023/05/22 11:12:26;;;;;;;9.95;8.27;;;;;;;;;;4982084;28;20058;-75
2023/05/22 11:14:55;;;;;;;10.40;8.70;;;;;;;;;;5015894;28;20095;-76
2023/05/22 11:17:26;;;;;;;9.80;8.50;;;;;;;;;;5012052;28;20059;-75
2023/05/22 11:20:14;;;;;;;10.60;8.68;;;;;;;;;;4991911;28;20084;-75
2023/05/22 11:22:43;;;;;;;11.00;8.32;;;;;;;;;;5000666;28;20080;-74
2023/05/22 11:25:15;;;;;;;9.20;8.05;;;;;;;;;;4990265;28;20476;-73
2023/05/22 11:27:42;;;;;;;9.85;8.32;;;;;;;;;;5015081;28;20079;-76
2023/05/22 11:30:10;;;;;;;13.93;8.70;;;;;;;;;;4999566;28;20509;-75
2023/05/22 11:32:38;;;;;;;10.43;8.45;;;;;;;;;;5000201;28;20047;-76
2023/05/22 11:35:07;;;;;;;12.57;9.02;;;;;;;;;;5000767;28;20041;-75
2023/05/22 11:37:38;;;;;;;9.40;8.40;;;;;;;;;;5001276;28;20069;-78
2023/05/22 11:40:06;;;;;;;9.15;8.32;;;;;;;;;;5016994;28;20045;-77
2023/05/22 11:42:33;;;;;;;10.95;9.25;;;;;;;;;;5001462;28;20049;-77
2023/05/22 11:45:01;;;;;;;12.35;8.82;;;;;;;;;;5035220;28;20052;-77
2023/05/22 11:47:28;;;;;;;9.70;8.80;;;;;;;;;;5017752;28;20135;-78
2023/05/22 11:50:01;;;;;;;13.68;8.48;;;;;;;;;;4999352;28;20124;-78
2023/05/22 11:52:32;;;;;;;12.00;8.90;;;;;;;;;;5001835;28;20362;-77
2023/05/22 11:54:59;;;;;;;10.73;8.90;;;;;;;;;;4997686;28;20053;-78
2023/05/22 11:57:26;;;;;;;9.35;8.45;;;;;;;;;;4995489;28;20048;-78
2023/05/22 11:59:53;;;;;;;9.07;8.13;;;;;;;;;;5008111;28;20440;-78
2023/05/22 12:02:19;;;;;;;10.18;9.10;;;;;;;;;;5011753;28;20559;-78
2023/05/22 12:04:46;;;;;;;11.15;9.68;;;;;;;;;;5007582;28;20102;-78
2023/05/22 12:07:13;;;;;;;9.75;7.85;;;;;;;;;;5012374;28;20122;-77
2023/05/22 12:09:41;;;;;;;8.75;7.93;;;;;;;;;;5024418;28;20072;-78
2023/05/22 12:12:10;;;;;;;9.63;8.57;;;;;;;;;;5003698;28;20080;-78
2023/05/22 12:14:37;;;;;;;9.70;8.57;;;;;;;;;;5003990;28;20076;-78
2023/05/22 12:17:04;;;;;;;9.15;8.23;;;;;;;;;;5005367;28;20084;-78
2023/05/22 12:19:31;;;;;;;14.07;9.32;;;;;;;;;;5004724;28;20068;-78
2023/05/22 12:21:58;;;;;;;11.50;8.57;;;;;;;;;;5004293;28;20473;-78
2023/05/22 12:24:25;;;;;;;9.68;8.70;;;;;;;;;;5003512;28;20489;-78
2023/05/22 12:26:52;;;;;;;10.20;9.30;;;;;;;;;;5003536;28;20132;-78
2023/05/22 12:29:22;;;;;;;9.52;8.65;;;;;;;;;;5003533;28;20131;-78
2023/05/22 12:31:49;;;;;;;9.80;8.75;;;;;;;;;;5019423;28;20102;-78
2023/05/22 12:34:17;;;;;;;9.70;8.35;;;;;;;;;;5003532;28;20057;-78
2023/05/22 12:36:45;;;;;;;9.70;8.05;;;;;;;;;;5003137;28;20083;-78
2023/05/22 12:39:16;;;;;;;8.77;7.95;;;;;;;;;;5003308;28;20107;-78
2023/05/22 12:41:44;;;;;;;9.17;7.50;;;;;;;;;;5002791;28;20044;-78
2023/05/22 12:44:11;;;;;;;8.93;8.00;;;;;;;;;;5019491;28;20083;-78
2023/05/22 12:46:39;;;;;;;8.75;7.88;;;;;;;;;;5003219;28;20826;-78
2023/05/22 12:49:06;;;;;;;8.48;7.25;;;;;;;;;;5019391;28;20542;-78
2023/05/22 12:51:33;;;;;;;8.57;7.60;;;;;;;;;;5002581;28;20049;-78
2023/05/22 12:54:00;;;;;;;7.97;7.00;;;;;;;;;;5002674;28;20049;-78
2023/05/22 12:56:28;;;;;;;9.20;7.47;;;;;;;;;;5003401;28;20099;-77
2023/05/22 12:58:56;;;;;;;8.50;7.55;;;;;;;;;;5018681;28;20420;-76
2023/05/22 13:01:23;;;;;;;8.65;7.85;;;;;;;;;;5002953;28;20075;-77
2023/05/22 13:03:53;;;;;;;7.40;6.75;;;;;;;;;;5018991;28;20564;-77
2023/05/22 13:06:20;;;;;;;8.60;7.15;;;;;;;;;;5018620;28;20463;-77
2023/05/22 13:08:47;;;;;;;8.00;7.30;;;;;;;;;;5018020;28;20052;-77
2023/05/22 13:11:14;;;;;;;8.35;7.55;;;;;;;;;;5034834;28;20048;-77
2023/05/22 13:13:40;;;;;;;9.00;8.20;;;;;;;;;;5018584;28;20045;-77
2023/05/22 13:16:08;;;;;;;9.00;7.90;;;;;;;;;;5018443;28;20052;-77
2023/05/22 13:18:35;;;;;;;9.18;8.27;;;;;;;;;;5035151;28;20052;-77
2023/05/22 13:21:02;;;;;;;9.25;8.32;;;;;;;;;;5018313;28;20053;-77
2023/05/22 13:23:28;;;;;;;8.57;7.78;;;;;;;;;;5018304;28;20087;-77
2023/05/22 13:25:55;;;;;;;11.57;7.85;;;;;;;;;;5034622;28;20044;-79
2023/05/22 13:28:22;;;;;;;8.43;7.72;;;;;;;;;;5015289;28;20056;-76
2023/05/22 13:30:49;;;;;;;8.95;8.05;;;;;;;;;;5015492;28;20467;-76
2023/05/22 13:33:16;;;;;;;8.73;7.80;;;;;;;;;;5033841;28;20084;-76
2023/05/22 13:35:43;;;;;;;8.57;7.78;;;;;;;;;;5018109;28;20075;-79
2023/05/22 13:38:10;;;;;;;8.60;7.72;;;;;;;;;;5001781;28;20049;-77
2023/05/22 13:40:37;;;;;;;9.52;8.05;;;;;;;;;;5016596;28;20052;-77
2023/05/22 13:43:04;;;;;;;8.82;7.80;;;;;;;;;;4999361;28;20072;-77
2023/05/22 13:45:31;;;;;;;8.75;7.60;;;;;;;;;;4998653;28;20057;-77
2023/05/22 13:47:57;;;;;;;8.05;7.35;;;;;;;;;;5014840;28;20983;-77
2023/05/22 13:50:25;;;;;;;7.72;6.93;;;;;;;;;;4995722;28;20144;-77
2023/05/22 13:52:52;;;;;;;8.70;7.32;;;;;;;;;;5018262;28;20049;-77
2023/05/22 13:55:19;;;;;;;7.93;7.22;;;;;;;;;;5026870;28;20168;-77
2023/05/22 13:57:46;;;;;;;8.43;6.63;;;;;;;;;;5007029;28;20515;-77
2023/05/22 14:00:13;;;;;;;8.85;7.68;;;;;;;;;;4992425;28;20521;-76
2023/05/22 14:02:40;;;;;;;8.60;6.95;;;;;;;;;;4991766;28;20059;-77
2023/05/22 14:05:07;;;;;;;7.85;6.63;;;;;;;;;;4992162;28;20615;-77
2023/05/22 14:07:34;;;;;;;6.55;6.03;;;;;;;;;;4999874;28;20106;-77
2023/05/22 14:10:02;;;;;;;7.80;7.10;;;;;;;;;;5019687;28;20056;-76
2023/05/22 14:12:29;;;;;;;8.02;7.38;;;;;;;;;;5009416;28;20119;-76
2023/05/22 14:14:58;;;;;;;8.10;7.30;;;;;;;;;;5010572;28;20098;-76
2023/05/22 14:17:25;;;;;;;8.05;7.35;;;;;;;;;;5007311;28;20497;-77
2023/05/22 14:19:52;;;;;;;7.65;6.95;;;;;;;;;;5017888;28;20131;-77
2023/05/22 14:22:19;;;;;;;8.23;7.40;;;;;;;;;;5033756;28;20057;-76
2023/05/22 14:24:46;;;;;;;10.63;7.05;;;;;;;;;;5018103;28;20067;-76
2023/05/22 14:27:13;;;;;;;7.55;6.82;;;;;;;;;;5001556;28;20056;-77
2023/05/22 14:29:41;;;;;;;8.25;7.40;;;;;;;;;;5001354;28;20402;-76
2023/05/22 14:32:08;;;;;;;6.90;6.30;;;;;;;;;;5000724;28;20136;-76
2023/05/22 14:34:35;;;;;;;8.15;6.60;;;;;;;;;;4999883;28;20099;-75
2023/05/22 14:37:02;;;;;;;7.43;6.70;;;;;;;;;;4999361;28;20076;-75
2023/05/22 14:39:28;;;;;;;7.32;6.63;;;;;;;;;;5015741;28;20053;-76
2023/05/22 14:41:55;;;;;;;6.45;5.85;;;;;;;;;;4994145;28;20076;-75